Time;durP1;ratioP1;P1;durP2;ratioP2;P2;SDS_P1;SDS_P2;PMS_P1;PMS_P2;Temp;Humidity;BMP_temperature;BMP_pressure;BME280_temperature;BME280_humidity;BME280_pressure;Samples;Min_cycle;Max_cycle;Signal;HPM_P1;HPM_P2
2022/10/25 00:00:02;;;;;;;26.63;13.82;;;;;;;;;;5072983;28;20051;-66
2022/10/25 00:02:33;;;;;;;24.05;13.43;;;;;;;;;;5073351;28;20482;-66
2022/10/25 00:04:59;;;;;;;26.63;14.07;;;;;;;;;;5073304;28;20044;-66
2022/10/25 00:07:25;;;;;;;25.83;14.10;;;;;;;;;;5072738;28;20043;-66
2022/10/25 00:09:51;;;;;;;28.27;14.35;;;;;;;;;;5073178;28;20040;-66
2022/10/25 00:12:17;;;;;;;28.75;14.45;;;;;;;;;;5072544;28;20045;-66
2022/10/25 00:14:43;;;;;;;27.35;14.63;;;;;;;;;;5072790;28;20044;-66
2022/10/25 00:17:09;;;;;;;26.38;14.32;;;;;;;;;;5073241;28;20390;-66
2022/10/25 00:19:35;;;;;;;28.85;14.43;;;;;;;;;;5073076;28;20053;-66
2022/10/25 00:22:01;;;;;;;27.27;14.23;;;;;;;;;;5072583;28;20557;-66
2022/10/25 00:24:27;;;;;;;23.52;14.13;;;;;;;;;;5071478;28;20049;-66
2022/10/25 00:26:53;;;;;;;26.52;14.55;;;;;;;;;;5072818;28;20032;-66
2022/10/25 00:29:19;;;;;;;28.50;15.57;;;;;;;;;;5072446;28;20119;-66
2022/10/25 00:31:45;;;;;;;23.73;13.85;;;;;;;;;;5072943;28;20154;-66
2022/10/25 00:34:11;;;;;;;28.63;14.32;;;;;;;;;;5072952;28;20067;-66
2022/10/25 00:36:37;;;;;;;29.63;14.65;;;;;;;;;;5072390;28;20036;-66
2022/10/25 00:39:04;;;;;;;25.98;13.45;;;;;;;;;;5072618;28;20106;-66
2022/10/25 00:41:31;;;;;;;28.17;13.27;;;;;;;;;;5071852;28;20048;-66
2022/10/25 00:44:17;;;;;;;25.83;12.60;;;;;;;;;;5071786;28;20041;-66
2022/10/25 00:46:44;;;;;;;25.95;12.75;;;;;;;;;;5072263;28;20052;-66
2022/10/25 00:49:18;;;;;;;24.50;12.32;;;;;;;;;;5072408;28;20582;-66
2022/10/25 00:51:55;;;;;;;28.40;13.25;;;;;;;;;;5072152;28;20142;-66
2022/10/25 00:54:25;;;;;;;22.83;11.80;;;;;;;;;;5072422;28;20090;-66
2022/10/25 00:56:52;;;;;;;28.67;12.30;;;;;;;;;;5072088;28;20040;-66
2022/10/25 00:59:20;;;;;;;21.60;11.95;;;;;;;;;;5071843;28;20039;-66
2022/10/25 01:01:47;;;;;;;27.25;11.68;;;;;;;;;;5072224;28;20803;-66
2022/10/25 01:04:15;;;;;;;23.15;12.07;;;;;;;;;;5072126;28;20460;-66
2022/10/25 01:06:44;;;;;;;22.88;10.90;;;;;;;;;;5071571;28;20068;-66
2022/10/25 01:09:13;;;;;;;23.50;12.30;;;;;;;;;;5072002;28;20055;-66
2022/10/25 01:11:39;;;;;;;23.80;11.68;;;;;;;;;;5071755;28;20053;-66
2022/10/25 01:14:07;;;;;;;22.10;11.73;;;;;;;;;;5071267;28;20071;-66
2022/10/25 01:16:41;;;;;;;21.85;10.90;;;;;;;;;;5071936;28;20074;-66
2022/10/25 01:19:30;;;;;;;25.45;11.10;;;;;;;;;;5071768;28;20550;-66
2022/10/25 01:22:03;;;;;;;25.55;12.00;;;;;;;;;;5071353;28;20040;-66
2022/10/25 01:24:44;;;;;;;22.20;10.27;;;;;;;;;;5071639;28;20375;-66
2022/10/25 01:27:29;;;;;;;20.52;11.18;;;;;;;;;;5071667;28;20045;-66
2022/10/25 01:30:04;;;;;;;25.25;11.70;;;;;;;;;;5071038;28;20047;-66
2022/10/25 01:32:30;;;;;;;24.13;11.00;;;;;;;;;;5071504;28;20036;-66
2022/10/25 01:35:02;;;;;;;30.67;12.23;;;;;;;;;;5071401;28;20043;-66
2022/10/25 01:37:28;;;;;;;;;;;;;;;;;;5071309;28;20116;-66
2022/10/25 01:40:07;;;;;;;24.35;11.75;;;;;;;;;;5071368;28;19924;-66
2022/10/25 01:43:02;;;;;;;20.70;11.02;;;;;;;;;;5071428;28;20032;-66
2022/10/25 01:45:37;;;;;;;23.80;11.32;;;;;;;;;;5066335;28;20547;-66
2022/10/25 01:48:06;;;;;;;16.70;10.68;;;;;;;;;;5070087;28;20171;-66
2022/10/25 01:50:34;;;;;;;20.75;10.35;;;;;;;;;;5070811;28;20529;-66
2022/10/25 01:53:00;;;;;;;22.13;10.63;;;;;;;;;;5070296;28;20454;-66
2022/10/25 01:55:46;;;;;;;18.77;9.82;;;;;;;;;;5071250;28;20130;-66
2022/10/25 01:58:19;;;;;;;23.17;9.75;;;;;;;;;;5066385;28;20063;-66
2022/10/25 02:00:51;;;;;;;22.15;10.15;;;;;;;;;;5071154;28;20089;-66
2022/10/25 02:03:17;;;;;;;19.73;9.07;;;;;;;;;;5069491;28;20125;-66
2022/10/25 02:06:02;;;;;;;17.90;9.77;;;;;;;;;;5070639;28;20044;-66
2022/10/25 02:08:30;;;;;;;22.02;10.07;;;;;;;;;;5071192;28;20127;-66
2022/10/25 02:10:59;;;;;;;24.02;9.82;;;;;;;;;;5070906;28;20029;-66
2022/10/25 02:13:36;;;;;;;25.52;10.95;;;;;;;;;;5070185;28;20064;-66
2022/10/25 02:16:05;;;;;;;22.17;10.57;;;;;;;;;;5071119;28;20074;-66
2022/10/25 02:18:35;;;;;;;19.38;9.70;;;;;;;;;;5071010;28;20043;-66
2022/10/25 02:21:01;;;;;;;23.20;9.90;;;;;;;;;;5070498;28;20404;-66
2022/10/25 02:23:29;;;;;;;19.15;9.90;;;;;;;;;;5070772;28;20422;-66
2022/10/25 02:25:55;;;;;;;21.98;10.63;;;;;;;;;;5070384;28;20174;-66
2022/10/25 02:28:23;;;;;;;24.02;11.00;;;;;;;;;;5069980;28;20040;-66
2022/10/25 02:30:50;;;;;;;24.58;10.48;;;;;;;;;;5070690;28;20033;-66
2022/10/25 02:33:16;;;;;;;22.80;10.30;;;;;;;;;;5070427;28;20041;-66
2022/10/25 02:35:42;;;;;;;26.67;10.98;;;;;;;;;;5070339;28;20411;-66
2022/10/25 02:38:09;;;;;;;23.45;10.65;;;;;;;;;;5070822;28;20037;-66
2022/10/25 02:40:35;;;;;;;24.88;11.02;;;;;;;;;;5070339;28;20089;-66
2022/10/25 02:43:01;;;;;;;24.38;10.88;;;;;;;;;;5070239;28;20410;-66
2022/10/25 02:45:27;;;;;;;24.13;11.35;;;;;;;;;;5070692;28;20153;-66
2022/10/25 02:47:53;;;;;;;20.67;11.50;;;;;;;;;;5070654;28;20090;-66
2022/10/25 02:50:19;;;;;;;26.38;11.27;;;;;;;;;;5070100;28;20076;-66
2022/10/25 02:52:45;;;;;;;27.50;11.63;;;;;;;;;;5070609;28;20169;-66
2022/10/25 02:55:11;;;;;;;20.77;11.88;;;;;;;;;;5070593;28;20070;-66
2022/10/25 02:57:38;;;;;;;25.80;12.77;;;;;;;;;;5070071;28;20044;-66
2022/10/25 03:00:05;;;;;;;28.10;12.05;;;;;;;;;;5070158;28;20116;-66
2022/10/25 03:02:31;;;;;;;22.73;11.75;;;;;;;;;;5070302;28;20348;-66
2022/10/25 03:04:57;;;;;;;24.13;11.85;;;;;;;;;;5071770;28;20052;-66
2022/10/25 03:07:23;;;;;;;25.20;12.38;;;;;;;;;;5073905;28;20093;-66
2022/10/25 03:09:49;;;;;;;31.17;12.07;;;;;;;;;;5074200;28;20036;-66
2022/10/25 03:12:15;;;;;;;29.27;12.70;;;;;;;;;;5072337;28;20056;-66
2022/10/25 03:14:41;;;;;;;23.70;11.68;;;;;;;;;;5074211;28;20055;-66
2022/10/25 03:17:07;;;;;;;24.40;11.40;;;;;;;;;;5074228;28;20134;-66
2022/10/25 03:19:33;;;;;;;25.35;11.32;;;;;;;;;;5073654;28;20040;-66
2022/10/25 03:21:59;;;;;;;23.05;12.18;;;;;;;;;;5074066;28;20048;-66
2022/10/25 03:24:25;;;;;;;21.83;10.48;;;;;;;;;;5074006;28;20142;-66
2022/10/25 03:26:51;;;;;;;29.17;11.50;;;;;;;;;;5073540;28;20067;-66
2022/10/25 03:29:17;;;;;;;21.75;10.50;;;;;;;;;;5073875;28;20036;-66
2022/10/25 03:31:43;;;;;;;21.35;10.30;;;;;;;;;;5073865;28;20425;-66
2022/10/25 03:34:10;;;;;;;23.25;10.55;;;;;;;;;;5073587;28;20044;-66
2022/10/25 03:36:36;;;;;;;21.75;10.65;;;;;;;;;;5073883;28;20047;-66
2022/10/25 03:39:02;;;;;;;26.30;10.35;;;;;;;;;;5073689;28;20080;-66
2022/10/25 03:41:28;;;;;;;24.50;10.82;;;;;;;;;;5073292;28;20459;-66
2022/10/25 03:43:54;;;;;;;29.45;10.88;;;;;;;;;;5073634;28;20039;-66
2022/10/25 03:46:20;;;;;;;24.65;11.63;;;;;;;;;;5073783;28;20036;-66
2022/10/25 03:48:46;;;;;;;25.98;11.50;;;;;;;;;;5073300;28;20080;-66
2022/10/25 03:51:12;;;;;;;33.08;11.98;;;;;;;;;;5073396;28;20375;-66
2022/10/25 03:53:38;;;;;;;25.33;11.45;;;;;;;;;;5073304;28;20048;-66
2022/10/25 03:56:04;;;;;;;21.20;11.70;;;;;;;;;;5073315;28;20044;-66
2022/10/25 03:58:30;;;;;;;28.08;12.50;;;;;;;;;;5073166;28;20040;-66
2022/10/25 04:00:58;;;;;;;23.80;11.00;;;;;;;;;;5071661;28;20045;-66
2022/10/25 04:03:24;;;;;;;27.80;12.75;;;;;;;;;;5071770;28;20486;-67
2022/10/25 04:05:50;;;;;;;31.73;12.13;;;;;;;;;;5072470;28;20043;-67
2022/10/25 04:08:16;;;;;;;25.50;11.57;;;;;;;;;;5073261;28;20041;-67
2022/10/25 04:10:43;;;;;;;25.77;11.15;;;;;;;;;;5073114;28;20085;-67
2022/10/25 04:13:09;;;;;;;25.05;12.70;;;;;;;;;;5072441;28;20048;-66
2022/10/25 04:15:36;;;;;;;28.15;11.88;;;;;;;;;;5072489;28;20051;-66
2022/10/25 04:18:03;;;;;;;30.35;11.85;;;;;;;;;;5072501;28;20057;-66
2022/10/25 04:20:29;;;;;;;25.10;11.68;;;;;;;;;;5072410;28;20067;-66
2022/10/25 04:22:56;;;;;;;26.13;11.63;;;;;;;;;;5072641;28;20079;-66
2022/10/25 04:25:23;;;;;;;22.50;11.80;;;;;;;;;;5072878;28;20082;-66
2022/10/25 04:27:49;;;;;;;24.20;11.93;;;;;;;;;;5072345;28;20043;-66
2022/10/25 04:30:15;;;;;;;23.13;11.15;;;;;;;;;;5071521;28;20101;-66
2022/10/25 04:32:41;;;;;;;25.15;12.20;;;;;;;;;;5072685;28;20036;-66
2022/10/25 04:35:07;;;;;;;26.40;12.45;;;;;;;;;;5072494;28;20110;-67
2022/10/25 04:37:33;;;;;;;27.70;11.75;;;;;;;;;;5072633;28;20505;-67
2022/10/25 04:39:59;;;;;;;25.60;11.02;;;;;;;;;;5072671;28;20147;-67
2022/10/25 04:42:26;;;;;;;27.48;11.38;;;;;;;;;;5071944;28;20056;-66
2022/10/25 04:44:52;;;;;;;29.38;11.02;;;;;;;;;;5072418;28;20101;-66
2022/10/25 04:47:18;;;;;;;26.42;11.38;;;;;;;;;;5072473;28;20044;-66
2022/10/25 04:49:44;;;;;;;31.58;11.45;;;;;;;;;;5072114;28;20083;-66
2022/10/25 04:52:10;;;;;;;27.65;11.25;;;;;;;;;;5072241;28;20044;-66
2022/10/25 04:54:36;;;;;;;26.02;11.50;;;;;;;;;;5072444;28;20043;-66
2022/10/25 04:57:02;;;;;;;33.10;12.27;;;;;;;;;;5071943;28;20460;-66
2022/10/25 04:59:28;;;;;;;26.52;10.93;;;;;;;;;;5072223;28;20040;-66
2022/10/25 05:01:54;;;;;;;28.00;11.18;;;;;;;;;;5072105;28;20075;-66
2022/10/25 05:04:20;;;;;;;23.63;11.35;;;;;;;;;;5071706;28;20032;-66
2022/10/25 05:06:46;;;;;;;25.92;11.15;;;;;;;;;;5066236;28;20033;-68
2022/10/25 05:09:12;;;;;;;23.83;10.68;;;;;;;;;;5070952;28;20116;-68
2022/10/25 05:11:38;;;;;;;28.92;10.50;;;;;;;;;;5071172;28;20383;-68
2022/10/25 05:14:04;;;;;;;28.42;10.77;;;;;;;;;;5071373;28;20044;-68
2022/10/25 05:16:33;;;;;;;24.58;10.63;;;;;;;;;;5071334;28;20060;-68
2022/10/25 05:19:00;;;;;;;25.77;10.15;;;;;;;;;;5069439;28;20147;-67
2022/10/25 05:21:29;;;;;;;31.23;10.30;;;;;;;;;;5071611;28;20139;-66
2022/10/25 05:23:56;;;;;;;22.38;10.15;;;;;;;;;;5071773;28;20072;-66
2022/10/25 05:26:22;;;;;;;22.60;9.63;;;;;;;;;;5071254;28;20037;-67
2022/10/25 05:28:49;;;;;;;24.60;8.98;;;;;;;;;;5071482;28;20036;-67
2022/10/25 05:31:19;;;;;;;24.63;9.73;;;;;;;;;;5071669;28;20036;-67
2022/10/25 05:33:47;;;;;;;24.95;8.93;;;;;;;;;;5070755;28;20075;-67
2022/10/25 05:36:14;;;;;;;24.10;9.45;;;;;;;;;;5071565;28;20047;-67
2022/10/25 05:38:40;;;;;;;18.05;9.07;;;;;;;;;;5071006;28;20044;-67
2022/10/25 05:41:06;;;;;;;19.33;8.18;;;;;;;;;;5071120;28;20032;-67
2022/10/25 05:43:32;;;;;;;22.27;8.90;;;;;;;;;;5071177;28;20124;-66
2022/10/25 05:46:06;;;;;;;17.33;7.75;;;;;;;;;;5071382;28;20047;-66
2022/10/25 05:48:33;;;;;;;19.60;7.45;;;;;;;;;;5070981;28;20602;-66
2022/10/25 05:51:19;;;;;;;19.35;7.75;;;;;;;;;;5071264;28;20119;-66
2022/10/25 05:53:46;;;;;;;17.95;7.45;;;;;;;;;;5069641;28;20039;-69
2022/10/25 05:56:13;;;;;;;16.48;8.00;;;;;;;;;;5069636;28;20098;-68
2022/10/25 05:58:39;;;;;;;19.58;7.68;;;;;;;;;;5068937;28;20059;-69
2022/10/25 06:01:05;;;;;;;25.30;8.20;;;;;;;;;;5069027;28;20040;-68
2022/10/25 06:03:32;;;;;;;24.33;8.68;;;;;;;;;;5070166;28;20053;-68
2022/10/25 06:06:01;;;;;;;22.33;8.13;;;;;;;;;;5070826;28;20035;-68
2022/10/25 06:08:28;;;;;;;23.60;8.23;;;;;;;;;;5069458;28;20041;-68
2022/10/25 06:10:54;;;;;;;20.10;8.90;;;;;;;;;;5069911;28;20701;-68
2022/10/25 06:13:20;;;;;;;19.00;8.65;;;;;;;;;;5070403;28;20053;-68
2022/10/25 06:15:46;;;;;;;16.67;7.85;;;;;;;;;;5070516;28;20115;-69
2022/10/25 06:18:12;;;;;;;17.45;8.27;;;;;;;;;;5068075;28;20113;-69
2022/10/25 06:20:38;;;;;;;24.50;8.85;;;;;;;;;;5101156;28;20033;-69
2022/10/25 06:23:04;;;;;;;21.88;9.18;;;;;;;;;;5068359;28;20045;-69
2022/10/25 06:25:30;;;;;;;23.70;9.27;;;;;;;;;;5067938;28;20055;-69
2022/10/25 06:27:56;;;;;;;23.13;9.05;;;;;;;;;;5092694;28;20093;-70
2022/10/25 06:30:22;;;;;;;25.10;9.05;;;;;;;;;;5070454;28;20086;-69
2022/10/25 06:32:48;;;;;;;27.08;8.85;;;;;;;;;;5068056;28;20047;-68
2022/10/25 06:35:14;;;;;;;24.70;9.18;;;;;;;;;;5069999;28;20044;-67
2022/10/25 06:37:40;;;;;;;24.27;8.60;;;;;;;;;;5057069;28;20053;-66
2022/10/25 06:40:07;;;;;;;30.80;9.02;;;;;;;;;;5048807;28;20115;-67
2022/10/25 06:42:33;;;;;;;30.10;9.55;;;;;;;;;;5068797;28;20040;-66
2022/10/25 06:44:59;;;;;;;29.27;9.18;;;;;;;;;;5068939;28;20078;-67
2022/10/25 06:47:25;;;;;;;26.05;9.35;;;;;;;;;;5068711;28;20203;-68
2022/10/25 06:49:51;;;;;;;29.27;9.55;;;;;;;;;;5047898;28;20044;-68
2022/10/25 06:52:17;;;;;;;26.75;9.38;;;;;;;;;;5069116;28;20040;-69
2022/10/25 06:54:43;;;;;;;31.70;9.68;;;;;;;;;;5066840;28;20037;-69
2022/10/25 06:57:09;;;;;;;22.77;9.30;;;;;;;;;;5067376;28;20040;-69
2022/10/25 06:59:35;;;;;;;25.27;9.18;;;;;;;;;;5068894;28;20133;-69
2022/10/25 07:02:01;;;;;;;24.63;9.15;;;;;;;;;;5068422;28;20036;-68
2022/10/25 07:04:31;;;;;;;25.20;9.52;;;;;;;;;;5067432;28;20051;-68
2022/10/25 07:06:57;;;;;;;27.52;9.73;;;;;;;;;;5050239;28;20037;-66
2022/10/25 07:09:24;;;;;;;30.65;9.40;;;;;;;;;;5067307;28;20040;-67
2022/10/25 07:11:51;;;;;;;26.90;9.60;;;;;;;;;;5067281;28;20074;-67
2022/10/25 07:14:17;;;;;;;25.65;9.52;;;;;;;;;;5068660;28;20040;-69
2022/10/25 07:16:43;;;;;;;35.85;10.07;;;;;;;;;;5066610;28;20139;-69
2022/10/25 07:19:09;;;;;;;25.00;9.90;;;;;;;;;;5067418;28;20040;-71
2022/10/25 07:21:35;;;;;;;23.30;9.68;;;;;;;;;;5067565;28;20048;-71
2022/10/25 07:24:02;;;;;;;23.77;9.00;;;;;;;;;;5066967;28;20577;-70
2022/10/25 07:26:29;;;;;;;27.45;10.32;;;;;;;;;;5066612;28;20141;-71
2022/10/25 07:28:56;;;;;;;31.10;9.98;;;;;;;;;;5066425;28;20032;-67
2022/10/25 07:31:24;;;;;;;26.13;10.52;;;;;;;;;;5068509;28;20029;-67
2022/10/25 07:33:51;;;;;;;23.45;10.65;;;;;;;;;;5068526;28;20127;-69
2022/10/25 07:36:17;;;;;;;35.90;11.98;;;;;;;;;;5068778;28;20036;-66
2022/10/25 07:38:43;;;;;;;26.90;10.88;;;;;;;;;;5067701;28;20093;-70
2022/10/25 07:41:09;;;;;;;30.58;11.27;;;;;;;;;;5067620;28;20045;-69
2022/10/25 07:43:35;;;;;;;28.17;11.38;;;;;;;;;;5067920;28;20098;-69
2022/10/25 07:46:02;;;;;;;30.13;11.02;;;;;;;;;;5066961;28;20054;-65
2022/10/25 07:48:28;;;;;;;24.30;10.73;;;;;;;;;;5066818;28;20076;-66
2022/10/25 07:50:54;;;;;;;29.83;12.05;;;;;;;;;;5068458;28;20036;-64
2022/10/25 07:53:20;;;;;;;30.00;11.38;;;;;;;;;;5071293;28;20036;-67
2022/10/25 07:55:52;;;;;;;28.73;11.48;;;;;;;;;;5071836;28;20033;-66
2022/10/25 07:58:18;;;;;;;31.92;11.77;;;;;;;;;;5069814;28;20036;-66
2022/10/25 08:00:44;;;;;;;30.63;12.98;;;;;;;;;;5069665;28;20071;-66
2022/10/25 08:03:11;;;;;;;32.95;12.05;;;;;;;;;;5069427;28;20139;-65
2022/10/25 08:05:37;;;;;;;33.92;12.25;;;;;;;;;;5071743;28;20032;-65
2022/10/25 08:08:04;;;;;;;28.35;11.77;;;;;;;;;;5067559;28;20667;-65
2022/10/25 08:10:30;;;;;;;22.88;10.88;;;;;;;;;;5071127;28;20049;-74
2022/10/25 08:12:57;;;;;;;28.70;12.10;;;;;;;;;;5067198;28;20127;-65
2022/10/25 08:15:23;;;;;;;29.80;12.48;;;;;;;;;;5063053;28;20076;-65
2022/10/25 08:17:56;;;;;;;32.35;12.20;;;;;;;;;;5070915;28;20407;-65
2022/10/25 08:20:22;;;;;;;27.52;11.48;;;;;;;;;;5070753;28;20047;-64
2022/10/25 08:22:48;;;;;;;25.00;11.05;;;;;;;;;;5070535;28;20454;-65
2022/10/25 08:25:14;;;;;;;24.35;11.65;;;;;;;;;;5068297;28;20040;-64
2022/10/25 08:27:40;;;;;;;29.20;11.45;;;;;;;;;;5070585;28;20055;-65
2022/10/25 08:30:07;;;;;;;29.15;11.35;;;;;;;;;;5069069;28;20032;-65
2022/10/25 08:32:36;;;;;;;28.08;11.65;;;;;;;;;;5070462;28;20475;-65
2022/10/25 08:35:02;;;;;;;33.97;11.98;;;;;;;;;;5063205;28;20044;-64
2022/10/25 08:37:28;;;;;;;26.77;12.25;;;;;;;;;;5070432;28;20360;-64
2022/10/25 08:39:54;;;;;;;28.55;11.25;;;;;;;;;;5069681;28;20044;-63
2022/10/25 08:42:27;;;;;;;30.98;12.70;;;;;;;;;;5070764;28;20222;-65
2022/10/25 08:44:53;;;;;;;27.50;12.20;;;;;;;;;;5067675;28;20036;-65
2022/10/25 08:47:23;;;;;;;22.92;11.07;;;;;;;;;;5069506;28;20048;-64
2022/10/25 08:49:49;;;;;;;29.02;11.38;;;;;;;;;;5068137;28;20812;-65
2022/10/25 08:52:18;;;;;;;25.95;10.85;;;;;;;;;;5068804;28;20123;-64
2022/10/25 08:54:45;;;;;;;25.67;9.80;;;;;;;;;;5065137;28;20054;-64
2022/10/25 08:57:32;;;;;;;21.23;9.18;;;;;;;;;;5085305;28;20054;-64
2022/10/25 08:59:59;;;;;;;21.40;8.55;;;;;;;;;;5068100;28;20101;-65
2022/10/25 09:02:32;;;;;;;24.38;9.38;;;;;;;;;;5067800;28;20033;-63
2022/10/25 09:04:58;;;;;;;18.63;7.47;;;;;;;;;;5068951;28;20102;-63
2022/10/25 09:07:43;;;;;;;17.73;8.05;;;;;;;;;;5069085;28;20033;-63
2022/10/25 09:10:19;;;;;;;17.67;7.70;;;;;;;;;;5066262;28;20044;-64
2022/10/25 09:13:14;;;;;;;19.33;7.60;;;;;;;;;;5062638;28;20163;-64
2022/10/25 09:15:54;;;;;;;18.48;8.25;;;;;;;;;;5082709;28;20079;-65
2022/10/25 09:18:22;;;;;;;22.83;8.65;;;;;;;;;;5068258;28;20056;-66
2022/10/25 09:20:50;;;;;;;19.75;7.90;;;;;;;;;;5065802;28;20044;-64
2022/10/25 09:23:32;;;;;;;13.68;8.70;;;;;;;;;;5068119;28;20044;-64
2022/10/25 09:26:24;;;;;;;17.85;7.43;;;;;;;;;;5069607;28;20089;-65
2022/10/25 09:28:52;;;;;;;20.02;7.18;;;;;;;;;;5058938;28;20040;-65
2022/10/25 09:31:21;;;;;;;17.83;7.82;;;;;;;;;;5064041;28;20037;-65
2022/10/25 09:33:50;;;;;;;13.90;6.45;;;;;;;;;;5067641;28;20053;-65
2022/10/25 09:36:16;;;;;;;17.88;6.30;;;;;;;;;;5061613;28;20082;-65
2022/10/25 09:38:42;;;;;;;20.33;7.10;;;;;;;;;;5068727;28;20164;-65
2022/10/25 09:41:15;;;;;;;22.10;7.57;;;;;;;;;;5063897;28;20032;-65
2022/10/25 09:43:47;;;;;;;19.48;7.32;;;;;;;;;;5062495;28;20047;-65
2022/10/25 09:46:16;;;;;;;18.05;7.55;;;;;;;;;;5063424;28;20040;-63
2022/10/25 09:48:45;;;;;;;20.70;7.10;;;;;;;;;;5064041;28;20142;-63
2022/10/25 09:51:18;;;;;;;19.70;6.85;;;;;;;;;;5064094;28;20044;-66
2022/10/25 09:53:45;;;;;;;15.77;6.38;;;;;;;;;;5065648;28;20123;-64
2022/10/25 09:56:11;;;;;;;16.27;6.25;;;;;;;;;;5066578;28;20482;-63
2022/10/25 09:58:43;;;;;;;17.45;6.70;;;;;;;;;;5064614;28;20028;-64
2022/10/25 10:01:12;;;;;;;14.15;6.50;;;;;;;;;;5066837;28;20049;-66
2022/10/25 10:03:40;;;;;;;13.63;6.75;;;;;;;;;;5066344;28;20048;-65
2022/10/25 10:06:20;;;;;;;14.85;5.88;;;;;;;;;;5065362;28;20111;-64
2022/10/25 10:08:51;;;;;;;18.05;6.30;;;;;;;;;;5067601;28;20040;-64
2022/10/25 10:11:18;;;;;;;13.23;5.30;;;;;;;;;;5069033;28;20098;-65
2022/10/25 10:13:49;;;;;;;14.75;6.03;;;;;;;;;;5067631;28;20566;-62
2022/10/25 10:16:37;;;;;;;16.80;6.80;;;;;;;;;;5068997;28;20075;-65
2022/10/25 10:19:13;;;;;;;15.07;6.32;;;;;;;;;;5056384;28;20067;-64
2022/10/25 10:21:43;;;;;;;12.75;5.85;;;;;;;;;;5063374;28;20086;-66
2022/10/25 10:24:22;;;;;;;16.25;5.50;;;;;;;;;;5065666;28;20052;-65
2022/10/25 10:26:55;;;;;;;15.70;5.50;;;;;;;;;;5079161;28;20040;-65
2022/10/25 10:29:23;;;;;;;19.05;5.85;;;;;;;;;;5064866;28;20177;-64
2022/10/25 10:31:53;;;;;;;18.92;4.70;;;;;;;;;;5053562;28;20101;-65
2022/10/25 10:34:34;;;;;;;13.93;4.40;;;;;;;;;;5064510;28;20037;-64
2022/10/25 10:37:20;;;;;;;13.10;4.60;;;;;;;;;;5067731;28;20143;-64
2022/10/25 10:39:49;;;;;;;10.43;4.30;;;;;;;;;;5066744;28;20086;-64
2022/10/25 10:42:15;;;;;;;10.80;4.85;;;;;;;;;;5064744;28;20079;-65
2022/10/25 10:44:58;;;;;;;14.38;4.45;;;;;;;;;;5063933;28;20471;-68
2022/10/25 10:47:25;;;;;;;16.77;5.15;;;;;;;;;;5055585;28;20044;-66
2022/10/25 10:49:51;;;;;;;13.55;4.30;;;;;;;;;;5067703;28;20176;-67
2022/10/25 10:52:26;;;;;;;11.27;3.83;;;;;;;;;;5068125;28;20494;-68
2022/10/25 10:54:52;;;;;;;15.80;3.85;;;;;;;;;;5068167;28;20047;-68
2022/10/25 10:57:39;;;;;;;12.68;3.70;;;;;;;;;;5068916;28;20049;-67
2022/10/25 11:00:05;;;;;;;11.30;4.07;;;;;;;;;;5069123;28;20040;-68
2022/10/25 11:02:39;;;;;;;14.05;4.32;;;;;;;;;;5069503;28;20075;-67
2022/10/25 11:05:21;;;;;;;12.20;3.85;;;;;;;;;;5067643;28;20181;-67
2022/10/25 11:07:53;;;;;;;10.40;4.10;;;;;;;;;;5069265;28;20471;-67
2022/10/25 11:10:20;;;;;;;12.80;4.72;;;;;;;;;;5066663;28;20056;-67
2022/10/25 11:13:03;;;;;;;7.47;3.35;;;;;;;;;;5100989;28;20072;-67
2022/10/25 11:15:33;;;;;;;12.50;3.95;;;;;;;;;;5066972;28;20044;-67
2022/10/25 11:18:02;;;;;;;11.45;3.95;;;;;;;;;;5068226;28;20105;-67
2022/10/25 11:20:33;;;;;;;11.88;4.05;;;;;;;;;;5067876;28;20045;-67
2022/10/25 11:23:06;;;;;;;13.38;4.30;;;;;;;;;;5066846;28;20070;-67
2022/10/25 11:25:43;;;;;;;14.77;3.92;;;;;;;;;;5066202;28;20103;-64
2022/10/25 11:28:28;;;;;;;10.70;4.40;;;;;;;;;;5071626;28;20722;-63
2022/10/25 11:31:04;;;;;;;15.10;4.28;;;;;;;;;;5062599;28;20129;-64
2022/10/25 11:33:36;;;;;;;11.93;4.40;;;;;;;;;;5069746;28;20032;-64
2022/10/25 11:36:12;;;;;;;7.78;4.38;;;;;;;;;;5071594;28;20040;-64
2022/10/25 11:38:55;;;;;;;12.88;3.72;;;;;;;;;;5069811;28;20502;-65
2022/10/25 11:41:36;;;;;;;10.85;3.78;;;;;;;;;;5071945;28;20152;-68
2022/10/25 11:44:05;;;;;;;10.50;3.60;;;;;;;;;;5067128;28;20051;-64
2022/10/25 11:46:49;;;;;;;8.10;3.40;;;;;;;;;;5067136;28;20043;-64
2022/10/25 11:49:20;;;;;;;9.30;3.20;;;;;;;;;;5071614;28;20072;-65
2022/10/25 11:51:48;;;;;;;11.20;3.95;;;;;;;;;;5069137;28;20036;-65
2022/10/25 11:54:27;;;;;;;7.97;3.60;;;;;;;;;;5070970;28;20044;-66
2022/10/25 11:57:02;;;;;;;8.90;3.72;;;;;;;;;;5064464;28;20036;-67
2022/10/25 11:59:51;;;;;;;10.05;3.50;;;;;;;;;;5069437;28;20040;-71
2022/10/25 12:02:21;;;;;;;10.38;3.50;;;;;;;;;;5060263;28;20063;-71
2022/10/25 12:05:06;;;;;;;9.98;3.30;;;;;;;;;;5069912;28;20068;-70
2022/10/25 12:08:04;;;;;;;11.02;3.15;;;;;;;;;;5070536;28;20040;-71
2022/10/25 12:10:34;;;;;;;11.65;4.40;;;;;;;;;;5069462;28;20052;-67
2022/10/25 12:13:02;;;;;;;10.07;4.25;;;;;;;;;;5068654;28;20118;-66
2022/10/25 12:15:34;;;;;;;12.45;3.33;;;;;;;;;;5067151;28;20113;-69
2022/10/25 12:18:00;;;;;;;;;;;;;;;;;;5071948;28;20453;-68
2022/10/25 12:20:27;;;;;;;10.40;3.28;;;;;;;;;;5069294;28;19951;-68
2022/10/25 12:22:58;;;;;;;10.18;2.95;;;;;;;;;;5068216;28;20032;-67
2022/10/25 12:25:50;;;;;;;14.70;3.28;;;;;;;;;;5069362;28;20124;-67
2022/10/25 12:28:21;;;;;;;9.93;3.78;;;;;;;;;;5062539;28;20109;-64
2022/10/25 12:30:47;;;;;;;8.05;2.55;;;;;;;;;;5070309;28;20029;-65
2022/10/25 12:33:32;;;;;;;17.20;3.75;;;;;;;;;;5070239;28;20037;-65
2022/10/25 12:36:00;;;;;;;12.45;3.33;;;;;;;;;;5064403;28;20044;-65
2022/10/25 12:38:38;;;;;;;9.85;3.40;;;;;;;;;;5066979;28;20124;-65
2022/10/25 12:41:25;;;;;;;9.63;2.72;;;;;;;;;;5066901;28;20045;-65
2022/10/25 12:44:03;;;;;;;5.47;2.40;;;;;;;;;;5070352;28;20135;-67
2022/10/25 12:46:29;;;;;;;12.45;3.42;;;;;;;;;;5068655;28;20826;-67
2022/10/25 12:49:14;;;;;;;8.32;2.97;;;;;;;;;;5069099;28;20060;-66
2022/10/25 12:51:59;;;;;;;6.38;2.75;;;;;;;;;;5068546;28;20090;-66
2022/10/25 12:54:32;;;;;;;11.55;3.38;;;;;;;;;;5068810;28;20040;-68
2022/10/25 12:56:58;;;;;;;7.70;2.45;;;;;;;;;;5074247;28;20625;-65
2022/10/25 12:59:24;;;;;;;9.48;2.58;;;;;;;;;;5079584;28;20052;-68
2022/10/25 13:02:09;;;;;;;9.18;2.83;;;;;;;;;;5068464;28;20498;-66
2022/10/25 13:04:43;;;;;;;10.32;2.78;;;;;;;;;;5065896;28;20048;-66
2022/10/25 13:07:10;;;;;;;11.20;2.92;;;;;;;;;;5066432;28;20033;-66
2022/10/25 13:09:38;;;;;;;12.88;2.88;;;;;;;;;;5069148;28;20551;-66
2022/10/25 13:12:05;;;;;;;12.07;3.33;;;;;;;;;;5068503;28;20098;-66
2022/10/25 13:14:36;;;;;;;12.18;3.38;;;;;;;;;;5068982;28;20135;-66
2022/10/25 13:17:17;;;;;;;7.85;3.03;;;;;;;;;;5063677;28;20102;-68
2022/10/25 13:19:44;;;;;;;9.40;2.80;;;;;;;;;;5065005;28;20114;-66
2022/10/25 13:22:30;;;;;;;10.02;2.45;;;;;;;;;;5069872;28;20475;-65
2022/10/25 13:24:57;;;;;;;8.90;2.80;;;;;;;;;;5068064;28;20048;-65
2022/10/25 13:27:25;;;;;;;11.10;2.70;;;;;;;;;;5064448;28;20041;-66
2022/10/25 13:30:06;;;;;;;9.05;2.58;;;;;;;;;;5066542;28;20067;-65
2022/10/25 13:32:33;;;;;;;7.95;2.70;;;;;;;;;;5069841;28;20113;-67
2022/10/25 13:35:01;;;;;;;7.70;2.80;;;;;;;;;;5065634;28;20040;-65
2022/10/25 13:37:30;;;;;;;7.65;2.67;;;;;;;;;;5068202;28;20076;-65
2022/10/25 13:39:58;;;;;;;9.00;2.58;;;;;;;;;;5068127;28;20100;-67
2022/10/25 13:42:34;;;;;;;9.32;2.83;;;;;;;;;;5068720;28;20055;-66
2022/10/25 13:45:03;;;;;;;7.50;2.38;;;;;;;;;;5069182;28;20697;-66
2022/10/25 13:47:35;;;;;;;6.00;2.47;;;;;;;;;;5067422;28;20151;-67
2022/10/25 13:50:11;;;;;;;5.50;2.17;;;;;;;;;;5063369;28;20046;-65
2022/10/25 13:52:37;;;;;;;5.60;2.30;;;;;;;;;;5068371;28;20132;-65
2022/10/25 13:55:09;;;;;;;6.38;2.25;;;;;;;;;;5065939;28;20051;-64
2022/10/25 13:57:47;;;;;;;7.43;2.30;;;;;;;;;;5065379;28;20352;-64
2022/10/25 14:00:33;;;;;;;9.07;2.40;;;;;;;;;;5069047;28;20084;-65
2022/10/25 14:03:02;;;;;;;7.03;2.28;;;;;;;;;;5065803;28;20839;-65
2022/10/25 14:05:47;;;;;;;4.47;2.40;;;;;;;;;;5066598;28;20044;-66
2022/10/25 14:08:18;;;;;;;5.38;1.98;;;;;;;;;;5063387;28;20036;-65
2022/10/25 14:10:45;;;;;;;6.03;2.22;;;;;;;;;;5062860;28;20048;-66
2022/10/25 14:13:15;;;;;;;5.63;2.20;;;;;;;;;;5066041;28;20040;-65
2022/10/25 14:15:55;;;;;;;8.00;2.22;;;;;;;;;;5063720;28;20379;-66
2022/10/25 14:18:22;;;;;;;6.93;2.38;;;;;;;;;;5062985;28;20040;-65
2022/10/25 14:20:51;;;;;;;7.63;2.33;;;;;;;;;;5068959;28;20191;-65
2022/10/25 14:23:22;;;;;;;7.13;2.53;;;;;;;;;;5067730;28;20044;-65
2022/10/25 14:25:59;;;;;;;5.63;2.23;;;;;;;;;;5066768;28;20095;-66
2022/10/25 14:28:29;;;;;;;5.68;2.38;;;;;;;;;;5062359;28;20486;-65
2022/10/25 14:30:56;;;;;;;7.53;2.30;;;;;;;;;;5067056;28;20162;-65
2022/10/25 14:33:25;;;;;;;7.82;2.50;;;;;;;;;;5067310;28;20048;-65
2022/10/25 14:35:52;;;;;;;7.65;2.30;;;;;;;;;;5067628;28;20479;-64
2022/10/25 14:38:20;;;;;;;8.57;2.03;;;;;;;;;;5067422;28;20048;-65
2022/10/25 14:40:53;;;;;;;10.20;2.30;;;;;;;;;;5070002;28;20064;-65